Time;durP1;ratioP1;P1;durP2;ratioP2;P2;SDS_P1;SDS_P2;PMS_P1;PMS_P2;Temp;Humidity;BMP_temperature;BMP_pressure;BME280_temperature;BME280_humidity;BME280_pressure;Samples;Min_cycle;Max_cycle;Signal;HPM_P1;HPM_P2
2022/11/03 00:02:20;;;;;;;10.97;6.50;;;6.50;99.90;;;;;;5044083;28;20235;-40
2022/11/03 00:04:46;;;;;;;9.57;6.20;;;6.40;99.90;;;;;;5027138;28;20210;-38
2022/11/03 00:07:18;;;;;;;10.43;6.90;;;6.40;99.90;;;;;;5027222;28;20180;-40
2022/11/03 00:09:44;;;;;;;10.33;7.27;;;6.40;99.90;;;;;;5010747;28;20215;-38
2022/11/03 00:12:09;;;;;;;12.27;6.67;;;6.30;99.90;;;;;;5010755;28;20244;-39
2022/11/03 00:14:35;;;;;;;9.43;6.10;;;6.40;99.90;;;;;;5010516;28;20226;-41
2022/11/03 00:17:01;;;;;;;8.73;6.13;;;6.40;99.90;;;;;;5010340;28;20188;-39
2022/11/03 00:19:27;;;;;;;8.87;6.23;;;6.40;99.90;;;;;;5027116;28;20190;-41
2022/11/03 00:21:52;;;;;;;9.60;6.00;;;6.30;99.90;;;;;;5010524;28;20211;-40
2022/11/03 00:24:18;;;;;;;11.43;6.50;;;6.20;99.90;;;;;;5026956;28;20230;-38
2022/11/03 00:26:44;;;;;;;7.77;6.00;;;6.10;99.90;;;;;;5010295;28;20184;-39
2022/11/03 00:29:12;;;;;;;10.97;6.57;;;6.10;99.90;;;;;;5043345;28;20215;-41
2022/11/03 00:31:40;;;;;;;9.07;6.17;;;6.00;99.90;;;;;;5010614;28;20174;-40
2022/11/03 00:34:07;;;;;;;13.60;6.70;;;6.00;99.90;;;;;;5010114;28;20232;-40
2022/11/03 00:36:35;;;;;;;12.17;5.90;;;6.10;99.90;;;;;;5010373;28;20183;-40
2022/11/03 00:39:02;;;;;;;10.80;5.67;;;6.10;99.90;;;;;;5010241;28;20239;-39
2022/11/03 00:41:28;;;;;;;8.40;5.70;;;6.00;99.90;;;;;;5027535;28;20204;-40
2022/11/03 00:43:54;;;;;;;13.17;6.83;;;6.00;99.90;;;;;;5046592;28;20217;-41
2022/11/03 00:46:21;;;;;;;8.87;5.83;;;6.00;99.90;;;;;;5030165;28;20184;-39
2022/11/03 00:48:47;;;;;;;8.63;5.60;;;6.00;99.90;;;;;;5062817;28;20263;-39
2022/11/03 00:51:19;;;;;;;10.60;5.70;;;6.00;99.90;;;;;;5013699;28;20180;-39
2022/11/03 00:54:02;;;;;;;9.80;6.00;;;5.90;99.90;;;;;;5029742;28;20253;-37
2022/11/03 00:56:30;;;;;;;9.10;6.60;;;5.90;99.90;;;;;;5031225;28;20170;-42
2022/11/03 00:58:57;;;;;;;11.90;7.17;;;5.80;99.90;;;;;;5029451;28;20184;-36
2022/11/03 01:01:31;;;;;;;10.07;6.13;;;5.80;99.90;;;;;;5030949;28;20636;-39
2022/11/03 01:06:50;;;;;;;8.87;6.07;;;5.70;99.90;;;;;;5026092;28;20216;-36
2022/11/03 01:09:28;;;;;;;7.13;5.73;;;5.80;99.90;;;;;;5011103;28;20197;-37
2022/11/03 01:12:08;;;;;;;9.13;5.47;;;5.80;99.90;;;;;;5010021;28;20236;-40
2022/11/03 01:14:39;;;;;;;9.13;5.53;;;5.80;99.90;;;;;;4993366;28;20209;-40
2022/11/03 01:17:09;;;;;;;8.00;6.00;;;5.70;99.90;;;;;;5011439;28;20179;-39
2022/11/03 01:19:35;;;;;;;11.23;6.60;;;5.80;99.90;;;;;;4993651;28;20186;-39
2022/11/03 01:22:01;;;;;;;11.43;6.50;;;5.70;99.90;;;;;;5010232;28;20199;-41
2022/11/03 01:24:27;;;;;;;9.73;5.90;;;5.60;99.90;;;;;;4993575;28;20201;-41
2022/11/03 01:26:53;;;;;;;10.90;6.07;;;5.60;99.90;;;;;;5026043;28;20334;-41
2022/11/03 01:29:18;;;;;;;7.80;6.07;;;5.50;99.90;;;;;;5009751;28;20262;-41
2022/11/03 01:31:44;;;;;;;7.53;5.40;;;5.40;99.90;;;;;;5009668;28;20244;-41
2022/11/03 01:34:18;;;;;;;8.23;6.50;;;5.30;99.90;;;;;;4994809;28;20199;-42
2022/11/03 01:36:44;;;;;;;8.83;5.80;;;5.20;99.90;;;;;;5012773;28;20278;-41
2022/11/03 01:39:16;;;;;;;7.20;5.57;;;5.30;99.90;;;;;;5029422;28;20326;-39
2022/11/03 01:41:44;;;;;;;8.40;5.93;;;5.30;99.90;;;;;;5013059;28;20193;-42
2022/11/03 01:44:10;;;;;;;8.03;5.87;;;5.40;99.90;;;;;;5029141;28;20206;-41
2022/11/03 01:46:39;;;;;;;9.70;6.30;;;5.40;99.90;;;;;;5013058;28;20175;-41
2022/11/03 01:49:40;;;;;;;13.60;6.73;;;5.40;99.90;;;;;;5029190;28;20311;-41
2022/11/03 01:52:43;;;;;;;9.27;6.50;;;5.30;99.90;;;;;;5030330;28;20183;-41
2022/11/03 01:55:18;;;;;;;11.57;6.37;;;5.30;99.90;;;;;;5029103;28;20192;-41
2022/11/03 01:57:53;;;;;;;9.90;5.63;;;5.30;99.90;;;;;;5045610;28;20182;-41
2022/11/03 02:00:20;;;;;;;9.37;6.20;;;5.30;99.90;;;;;;5012802;28;20187;-41
2022/11/03 02:02:46;;;;;;;9.17;6.57;;;5.30;99.90;;;;;;5012753;28;20238;-41
2022/11/03 02:05:15;;;;;;;9.87;6.23;;;5.30;99.90;;;;;;5012655;28;20222;-40
2022/11/03 02:07:52;;;;;;;9.17;5.60;;;5.30;99.90;;;;;;5028955;28;20657;-41
2022/11/03 02:10:18;;;;;;;9.43;5.60;;;5.40;99.90;;;;;;5030675;28;20243;-42
2022/11/03 02:12:43;;;;;;;10.37;6.17;;;5.40;99.90;;;;;;5029299;28;20211;-40
2022/11/03 02:15:13;;;;;;;7.37;5.63;;;5.30;99.90;;;;;;5029087;28;20207;-38
2022/11/03 02:17:41;;;;;;;8.83;5.63;;;5.30;99.90;;;;;;5032030;28;20180;-42
2022/11/03 02:20:14;;;;;;;8.60;5.27;;;5.20;99.90;;;;;;5032859;28;20194;-41
2022/11/03 02:22:39;;;;;;;7.70;5.20;;;5.10;99.90;;;;;;5016290;28;20182;-41
2022/11/03 02:25:44;;;;;;;7.47;5.50;;;4.90;99.90;;;;;;5032291;28;20211;-42
2022/11/03 02:28:12;;;;;;;6.40;5.47;;;4.80;99.90;;;;;;5036796;28;20188;-41
2022/11/03 02:30:43;;;;;;;6.77;4.80;;;4.90;99.90;;;;;;5016000;28;20192;-41
2022/11/03 02:33:18;;;;;;;7.60;5.13;;;4.90;99.90;;;;;;5049039;28;20230;-41
2022/11/03 02:35:48;;;;;;;7.60;5.03;;;4.90;99.90;;;;;;5033600;28;20179;-41
2022/11/03 02:38:16;;;;;;;12.17;5.10;;;4.90;99.90;;;;;;5015442;28;20183;-40
2022/11/03 02:40:51;;;;;;;7.13;5.70;;;4.80;99.90;;;;;;5049013;28;20184;-41
2022/11/03 02:43:18;;;;;;;7.80;5.50;;;4.80;99.90;;;;;;5015563;28;20198;-41
2022/11/03 02:45:47;;;;;;;7.93;5.57;;;4.80;99.90;;;;;;5032048;28;20266;-42
2022/11/03 02:48:15;;;;;;;7.83;5.47;;;4.90;99.90;;;;;;5031728;28;20261;-41
2022/11/03 02:50:41;;;;;;;7.23;5.60;;;4.90;99.90;;;;;;5048569;28;20188;-42
2022/11/03 02:53:11;;;;;;;10.93;5.80;;;4.90;99.90;;;;;;5048591;28;20201;-40
2022/11/03 02:55:48;;;;;;;7.40;5.23;;;5.00;99.90;;;;;;5015465;28;20186;-41
2022/11/03 02:58:25;;;;;;;6.43;5.07;;;5.00;99.90;;;;;;5033069;28;20179;-41
2022/11/03 03:01:00;;;;;;;7.30;5.23;;;5.10;99.90;;;;;;5032021;28;20194;-41
2022/11/03 03:03:32;;;;;;;7.23;5.33;;;5.10;99.90;;;;;;5033019;28;20194;-41
2022/11/03 03:06:21;;;;;;;6.47;4.50;;;5.10;99.90;;;;;;5065202;28;20184;-40
2022/11/03 03:08:53;;;;;;;7.03;4.63;;;5.00;99.90;;;;;;5047988;28;20316;-41
2022/11/03 03:11:35;;;;;;;6.83;4.40;;;4.90;99.90;;;;;;5031763;28;20179;-41
2022/11/03 03:14:24;;;;;;;10.07;5.47;;;4.90;99.90;;;;;;5015419;28;20211;-41
2022/11/03 03:17:00;;;;;;;9.47;5.37;;;4.80;99.90;;;;;;5031377;28;20171;-41
2022/11/03 03:20:06;;;;;;;15.00;5.53;;;4.80;99.90;;;;;;5015336;28;20179;-41
2022/11/03 03:22:34;;;;;;;8.27;5.30;;;4.80;99.90;;;;;;5031460;28;20329;-41
2022/11/03 03:25:27;;;;;;;9.17;5.37;;;4.80;99.90;;;;;;5014828;28;20231;-41
2022/11/03 03:28:00;;;;;;;10.07;5.37;;;4.90;99.90;;;;;;5014721;28;20250;-42
2022/11/03 03:30:29;;;;;;;9.60;6.20;;;4.90;99.90;;;;;;5032578;28;20206;-40
2022/11/03 03:32:58;;;;;;;9.07;5.77;;;4.90;99.90;;;;;;5031254;28;20171;-40
2022/11/03 03:35:29;;;;;;;6.70;5.40;;;5.00;99.90;;;;;;5031217;28;20217;-41
2022/11/03 03:38:00;;;;;;;7.73;4.80;;;5.00;99.90;;;;;;5014551;28;20190;-41
2022/11/03 03:40:31;;;;;;;6.03;4.33;;;5.00;99.90;;;;;;5014879;28;20305;-41
2022/11/03 03:42:59;;;;;;;6.87;4.87;;;5.00;99.90;;;;;;5032204;28;20179;-41
2022/11/03 03:45:25;;;;;;;5.90;4.47;;;4.90;99.90;;;;;;5014542;28;20184;-41
2022/11/03 03:47:51;;;;;;;5.13;4.30;;;5.00;99.90;;;;;;5032062;28;20179;-41
2022/11/03 03:50:19;;;;;;;5.20;4.37;;;5.00;99.90;;;;;;5031144;28;20216;-39
2022/11/03 03:52:45;;;;;;;6.97;4.37;;;4.90;99.90;;;;;;5030995;28;20176;-41
2022/11/03 03:55:20;;;;;;;5.97;4.60;;;4.90;99.90;;;;;;5031243;28;20265;-40
2022/11/03 03:57:46;;;;;;;6.00;4.40;;;4.80;99.90;;;;;;5047199;28;20170;-41
2022/11/03 04:00:14;;;;;;;6.20;4.57;;;4.80;99.90;;;;;;5014312;28;20202;-41
2022/11/03 04:02:41;;;;;;;6.47;4.43;;;4.80;99.90;;;;;;5032141;28;20236;-41
2022/11/03 04:05:07;;;;;;;5.83;4.67;;;4.80;99.90;;;;;;5047040;28;20279;-42
2022/11/03 04:07:48;;;;;;;5.47;3.87;;;4.70;99.90;;;;;;5014083;28;20186;-41
2022/11/03 04:10:15;;;;;;;4.93;4.37;;;4.70;99.90;;;;;;5031946;28;20207;-41
2022/11/03 04:22:15;;;;;;;4.73;4.10;;;4.40;99.90;;;;;;5031781;28;20180;-39
2022/11/03 04:23:59;;;;;;;5.80;4.53;;;4.20;99.90;;;;;;5030133;28;20667;-41
2022/11/03 04:26:26;;;;;;;7.33;4.80;;;4.10;99.90;;;;;;5032308;28;20170;-40
2022/11/03 04:28:52;;;;;;;6.10;4.97;;;4.20;99.90;;;;;;5013753;28;20225;-41
2022/11/03 04:31:19;;;;;;;6.93;4.90;;;4.20;99.90;;;;;;5030163;28;20220;-40
2022/11/03 04:33:46;;;;;;;8.63;5.70;;;4.20;99.90;;;;;;5013586;28;20194;-41
2022/11/03 04:36:22;;;;;;;18.17;5.43;;;4.20;99.90;;;;;;5029975;28;20190;-40
2022/11/03 04:38:52;;;;;;;5.23;4.30;;;4.00;99.90;;;;;;5029525;28;20190;-39
2022/11/03 04:41:22;;;;;;;6.40;4.63;;;4.00;99.90;;;;;;5030015;28;20185;-40
2022/11/03 04:43:50;;;;;;;5.77;4.50;;;4.00;99.90;;;;;;5013353;28;20209;-40
2022/11/03 04:46:22;;;;;;;6.67;4.57;;;3.90;99.90;;;;;;5031380;28;20177;-40
2022/11/03 04:48:49;;;;;;;5.20;4.27;;;3.90;99.90;;;;;;5013200;28;20749;-40
2022/11/03 04:51:21;;;;;;;7.77;4.27;;;4.00;99.90;;;;;;5013542;28;20228;-40
2022/11/03 04:53:51;;;;;;;4.77;3.90;;;4.00;99.90;;;;;;5046301;28;20194;-39
2022/11/03 04:56:20;;;;;;;4.67;3.77;;;4.10;99.90;;;;;;5029975;28;20252;-40
2022/11/03 04:58:47;;;;;;;6.27;4.40;;;4.10;99.90;;;;;;5029767;28;20190;-41
2022/11/03 05:01:15;;;;;;;4.13;3.73;;;4.10;99.90;;;;;;5029693;28;20183;-41
2022/11/03 05:03:42;;;;;;;4.47;3.70;;;4.10;99.90;;;;;;5029796;28;20209;-39
2022/11/03 05:06:20;;;;;;;5.90;4.73;;;4.20;99.90;;;;;;5013243;28;20186;-36
2022/11/03 05:08:51;;;;;;;8.10;5.13;;;4.10;99.90;;;;;;5030683;28;20292;-40
2022/11/03 05:11:31;;;;;;;4.13;3.73;;;4.00;99.90;;;;;;5029566;28;20185;-40
2022/11/03 05:14:20;;;;;;;5.83;4.83;;;3.90;99.90;;;;;;5030898;28;20190;-39
2022/11/03 05:16:48;;;;;;;6.63;4.63;;;3.90;99.90;;;;;;5029355;28;20167;-40
2022/11/03 05:19:30;;;;;;;5.10;4.07;;;3.80;99.90;;;;;;5013074;28;20210;-40
2022/11/03 05:21:58;;;;;;;7.63;4.50;;;3.80;99.90;;;;;;5029673;28;20202;-41
2022/11/03 05:24:25;;;;;;;7.13;4.30;;;3.90;99.90;;;;;;5030907;28;20269;-41
2022/11/03 05:26:52;;;;;;;5.47;4.50;;;3.90;99.90;;;;;;5030929;28;20742;-39
2022/11/03 05:29:19;;;;;;;5.17;4.37;;;3.90;99.90;;;;;;5012916;28;20206;-40
2022/11/03 05:31:47;;;;;;;5.33;4.37;;;3.90;99.90;;;;;;5029598;28;20183;-39
2022/11/03 05:34:41;;;;;;;9.27;5.33;;;3.90;99.90;;;;;;5046211;28;20721;-41
2022/11/03 05:37:26;;;;;;;6.27;4.97;;;3.90;99.90;;;;;;5012999;28;20298;-38
2022/11/03 05:40:03;;;;;;;8.23;5.00;;;3.80;99.90;;;;;;5029435;28;20218;-40
2022/11/03 05:42:40;;;;;;;7.60;5.13;;;3.90;99.90;;;;;;5029500;28;20258;-40
2022/11/03 05:45:18;;;;;;;5.67;4.60;;;3.90;99.90;;;;;;5029493;28;20198;-40
2022/11/03 05:47:44;;;;;;;8.40;4.93;;;3.80;99.90;;;;;;5029030;28;20171;-40
2022/11/03 05:50:24;;;;;;;7.90;4.70;;;3.90;99.90;;;;;;5029323;28;20252;-39
2022/11/03 05:53:10;;;;;;;5.63;4.80;;;3.90;99.90;;;;;;5033154;28;20236;-40
2022/11/03 05:55:36;;;;;;;5.40;4.40;;;3.80;99.90;;;;;;5033146;28;20194;-41
2022/11/03 05:58:28;;;;;;;5.83;4.40;;;3.80;99.90;;;;;;5032984;28;20178;-40
2022/11/03 06:00:55;;;;;;;4.63;3.97;;;3.80;99.90;;;;;;5060751;28;20190;-39
2022/11/03 06:03:27;;;;;;;5.30;3.90;;;3.70;99.90;;;;;;5032873;28;20217;-40
2022/11/03 06:05:55;;;;;;;5.97;3.83;;;3.70;99.90;;;;;;5032883;28;20197;-39
2022/11/03 06:08:24;;;;;;;4.57;3.97;;;3.60;99.90;;;;;;5016192;28;20202;-39
2022/11/03 06:10:57;;;;;;;5.03;4.30;;;3.70;99.90;;;;;;5066015;28;20194;-40
2022/11/03 06:13:30;;;;;;;5.60;4.33;;;3.70;99.90;;;;;;5016229;28;20260;-38
2022/11/03 06:16:17;;;;;;;5.80;4.50;;;3.70;99.90;;;;;;5049368;28;20209;-41
2022/11/03 06:18:43;;;;;;;9.73;7.93;;;3.70;99.90;;;;;;5015676;28;20186;-40
2022/11/03 06:21:18;;;;;;;8.57;6.10;;;3.80;99.90;;;;;;5016136;28;20182;-39
2022/11/03 06:23:44;;;;;;;6.30;4.73;;;3.80;99.90;;;;;;5049041;28;20194;-40
2022/11/03 06:26:19;;;;;;;8.83;4.67;;;3.80;99.90;;;;;;5032752;28;20186;-39
2022/11/03 06:28:46;;;;;;;9.57;5.20;;;3.90;99.90;;;;;;5032349;28;20250;-39
2022/11/03 06:31:33;;;;;;;7.33;5.57;;;3.80;99.90;;;;;;5032829;28;20193;-39
2022/11/03 06:33:59;;;;;;;4.40;3.80;;;3.80;99.90;;;;;;5032601;28;20215;-41
2022/11/03 06:36:31;;;;;;;4.23;3.30;;;3.70;99.90;;;;;;5012596;28;20207;-41
2022/11/03 06:39:02;;;;;;;4.10;3.70;;;3.70;99.90;;;;;;5045495;28;20187;-38
2022/11/03 06:41:31;;;;;;;4.40;4.00;;;3.70;99.90;;;;;;5045659;28;20190;-40
2022/11/03 06:44:00;;;;;;;4.93;4.13;;;3.70;99.90;;;;;;5045531;28;20209;-40
2022/11/03 06:46:26;;;;;;;5.60;4.47;;;3.70;99.90;;;;;;4996074;28;20187;-40
2022/11/03 06:48:56;;;;;;;4.93;4.27;;;3.80;99.90;;;;;;5012110;28;20273;-40
2022/11/03 06:51:27;;;;;;;4.57;4.00;;;3.90;99.90;;;;;;4996132;28;20182;-40
2022/11/03 06:53:57;;;;;;;5.50;4.90;;;4.00;99.90;;;;;;5028837;28;20291;-40
2022/11/03 06:56:27;;;;;;;5.80;4.60;;;4.10;99.90;;;;;;5012389;28;20207;-39
2022/11/03 06:58:55;;;;;;;5.90;3.90;;;4.20;99.90;;;;;;5045344;28;20183;-38
2022/11/03 07:01:24;;;;;;;6.80;4.67;;;4.20;99.90;;;;;;4995882;28;20230;-41
2022/11/03 07:03:55;;;;;;;6.87;4.37;;;4.30;99.90;;;;;;5011954;28;20211;-40
2022/11/03 07:06:40;;;;;;;5.17;4.63;;;4.40;99.90;;;;;;5031416;28;20191;-40
2022/11/03 07:09:14;;;;;;;6.73;4.27;;;4.40;99.90;;;;;;5015154;28;20206;-40
2022/11/03 07:11:45;;;;;;;6.17;5.27;;;4.50;99.90;;;;;;5031734;28;20187;-39
2022/11/03 07:14:15;;;;;;;5.70;4.80;;;4.50;99.90;;;;;;5031777;28;20198;-41
2022/11/03 07:16:44;;;;;;;5.67;4.50;;;4.60;99.90;;;;;;5014853;28;20188;-41
2022/11/03 07:19:23;;;;;;;6.03;5.20;;;4.60;99.90;;;;;;5032977;28;20190;-39
2022/11/03 07:21:50;;;;;;;6.20;5.03;;;4.60;99.90;;;;;;5015504;28;20190;-35
2022/11/03 07:24:39;;;;;;;5.70;5.00;;;4.40;99.90;;;;;;5031207;28;20213;-39
2022/11/03 07:27:33;;;;;;;6.27;4.80;;;4.40;99.90;;;;;;5031123;28;20179;-37
2022/11/03 07:30:18;;;;;;;5.43;4.50;;;4.40;99.90;;;;;;5032610;28;20203;-36
2022/11/03 07:32:44;;;;;;;6.57;4.80;;;4.50;99.90;;;;;;5014673;28;20186;-37
2022/11/03 07:35:16;;;;;;;6.10;4.40;;;4.50;99.90;;;;;;5031268;28;20268;-36
2022/11/03 07:37:43;;;;;;;8.47;4.93;;;4.60;99.90;;;;;;5014629;28;20180;-36
2022/11/03 07:40:30;;;;;;;7.47;4.50;;;4.50;99.90;;;;;;5047917;28;20214;-36
2022/11/03 07:42:59;;;;;;;5.37;4.87;;;4.50;99.90;;;;;;5031327;28;20178;-39
2022/11/03 07:45:47;;;;;;;6.80;4.53;;;4.60;99.90;;;;;;5047838;28;20232;-36
2022/11/03 07:48:52;;;;;;;5.80;5.20;;;4.60;99.90;;;;;;5030850;28;20181;-37
2022/11/03 07:51:27;;;;;;;6.23;5.27;;;4.80;99.90;;;;;;5028248;28;20187;-37
2022/11/03 07:54:00;;;;;;;7.23;4.80;;;4.90;99.90;;;;;;5014315;28;20210;-36
2022/11/03 07:56:32;;;;;;;6.10;5.27;;;5.00;99.90;;;;;;5014606;28;20183;-36
2022/11/03 07:59:03;;;;;;;6.67;4.50;;;5.10;99.90;;;;;;5030803;28;20224;-36
2022/11/03 08:01:56;;;;;;;6.53;4.73;;;5.20;99.90;;;;;;5031039;28;20179;-34
2022/11/03 08:04:22;;;;;;;5.00;4.43;;;5.30;99.90;;;;;;5063656;28;20222;-37
2022/11/03 08:06:47;;;;;;;4.80;3.90;;;5.40;99.90;;;;;;5014111;28;20499;-35
2022/11/03 08:09:13;;;;;;;4.40;3.97;;;5.50;99.90;;;;;;5031987;28;20276;-32
2022/11/03 08:11:39;;;;;;;6.50;4.40;;;5.50;99.90;;;;;;5014442;28;20184;-35
2022/11/03 08:14:05;;;;;;;5.43;4.13;;;5.50;99.90;;;;;;5029900;28;20215;-37
2022/11/03 08:16:31;;;;;;;4.40;4.00;;;5.50;99.90;;;;;;5014261;28;20184;-36
2022/11/03 08:18:57;;;;;;;4.70;3.77;;;5.60;99.90;;;;;;5013952;28;20194;-37
2022/11/03 08:21:22;;;;;;;5.47;3.97;;;5.70;99.90;;;;;;5047273;28;20230;-36
2022/11/03 08:23:48;;;;;;;5.63;4.30;;;5.80;99.90;;;;;;5030338;28;20241;-36
2022/11/03 08:26:14;;;;;;;4.90;4.40;;;5.90;99.90;;;;;;5013906;28;20190;-37
2022/11/03 08:28:41;;;;;;;4.33;3.93;;;5.90;99.90;;;;;;5046830;28;20190;-39
2022/11/03 08:31:07;;;;;;;5.00;4.50;;;6.00;99.90;;;;;;5030326;28;20186;-41
2022/11/03 08:33:34;;;;;;;5.50;4.30;;;6.00;99.90;;;;;;5030092;28;20200;-38
2022/11/03 08:36:01;;;;;;;5.43;4.37;;;6.10;99.90;;;;;;5013792;28;20320;-39
2022/11/03 08:38:27;;;;;;;4.00;3.60;;;6.30;99.90;;;;;;5046504;28;20186;-38
2022/11/03 08:40:55;;;;;;;5.07;4.33;;;6.30;99.90;;;;;;5046604;28;20193;-38
2022/11/03 08:43:21;;;;;;;6.27;4.27;;;6.40;99.90;;;;;;5013917;28;20206;-38
2022/11/03 08:45:52;;;;;;;5.27;4.50;;;6.50;99.90;;;;;;5013613;28;20196;-38
2022/11/03 08:48:19;;;;;;;6.20;4.30;;;6.50;99.90;;;;;;5029732;28;20565;-37
2022/11/03 08:50:46;;;;;;;5.83;4.27;;;6.70;99.90;;;;;;5031251;28;20215;-38
2022/11/03 08:53:11;;;;;;;5.27;4.77;;;6.70;99.90;;;;;;5029717;28;20277;-34
2022/11/03 08:55:37;;;;;;;6.10;4.77;;;6.70;99.90;;;;;;5046484;28;20840;-38
2022/11/03 08:58:03;;;;;;;5.20;4.70;;;6.80;99.90;;;;;;5062886;28;20197;-38
2022/11/03 09:00:29;;;;;;;5.70;4.37;;;6.80;99.90;;;;;;5013368;28;20216;-37
2022/11/03 09:02:55;;;;;;;8.27;5.07;;;6.80;99.90;;;;;;5046305;28;20193;-39
2022/11/03 09:05:21;;;;;;;5.70;4.20;;;6.80;99.90;;;;;;5029843;28;20188;-37
2022/11/03 09:07:46;;;;;;;6.40;4.03;;;7.00;99.90;;;;;;5012879;28;20185;-38
2022/11/03 09:10:12;;;;;;;4.87;4.10;;;7.10;99.90;;;;;;5063114;28;20249;-37
2022/11/03 09:12:38;;;;;;;6.43;4.67;;;7.20;99.90;;;;;;5030927;28;20180;-37
2022/11/03 09:15:05;;;;;;;7.40;4.50;;;7.30;99.90;;;;;;5046167;28;20205;-38
2022/11/03 09:17:31;;;;;;;5.00;4.10;;;7.40;99.90;;;;;;5029237;28;20747;-37
2022/11/03 09:19:57;;;;;;;6.33;4.70;;;7.60;99.90;;;;;;5063035;28;20185;-36
2022/11/03 09:22:23;;;;;;;6.20;4.40;;;7.70;99.90;;;;;;5031460;28;20231;-37
2022/11/03 09:24:49;;;;;;;7.70;4.77;;;7.80;99.90;;;;;;5046476;28;20206;-38
2022/11/03 09:27:15;;;;;;;8.10;4.50;;;7.80;99.90;;;;;;5034668;28;20249;-38
2022/11/03 09:29:40;;;;;;;5.30;4.57;;;7.90;99.90;;;;;;5017141;28;20213;-37
2022/11/03 09:32:07;;;;;;;6.30;4.27;;;8.10;99.90;;;;;;5034863;28;20174;-40
2022/11/03 09:34:32;;;;;;;7.20;4.53;;;8.20;99.90;;;;;;5033532;28;20251;-38
2022/11/03 09:36:58;;;;;;;6.47;4.60;;;8.20;99.90;;;;;;5034425;28;20183;-36
2022/11/03 09:39:24;;;;;;;6.40;4.77;;;8.30;99.90;;;;;;5033573;28;20186;-36
2022/11/03 09:41:51;;;;;;;6.00;4.40;;;8.30;99.90;;;;;;5033255;28;20182;-38
2022/11/03 09:44:17;;;;;;;6.70;5.07;;;8.30;99.90;;;;;;5034548;28;20186;-37
2022/11/03 09:46:43;;;;;;;6.83;5.03;;;8.40;99.90;;;;;;5033066;28;20193;-38
2022/11/03 09:49:14;;;;;;;6.63;4.80;;;8.40;99.90;;;;;;5049878;28;20210;-39
2022/11/03 09:51:41;;;;;;;7.13;5.00;;;8.50;99.90;;;;;;5033324;28;20183;-38
2022/11/03 09:54:14;;;;;;;5.50;4.83;;;8.50;99.90;;;;;;5033298;28;20203;-38
2022/11/03 09:56:41;;;;;;;6.00;4.70;;;8.60;99.90;;;;;;5016270;28;20189;-38
2022/11/03 09:59:15;;;;;;;5.40;4.80;;;8.60;99.90;;;;;;5016636;28;20205;-36
2022/11/03 10:01:44;;;;;;;7.33;5.07;;;8.70;99.90;;;;;;5033356;28;20175;-37
2022/11/03 10:04:11;;;;;;;6.50;5.10;;;8.70;99.90;;;;;;5032757;28;20199;-37
2022/11/03 10:06:38;;;;;;;8.17;5.10;;;8.80;99.90;;;;;;5033093;28;20189;-38
2022/11/03 10:09:07;;;;;;;5.93;5.33;;;8.80;99.90;;;;;;5049251;28;20212;-36
2022/11/03 10:11:34;;;;;;;5.60;4.60;;;8.80;99.90;;;;;;5066185;28;20175;-40
2022/11/03 10:14:00;;;;;;;7.33;4.97;;;8.90;99.90;;;;;;5032833;28;20241;-39
2022/11/03 10:16:27;;;;;;;6.53;5.37;;;8.90;99.90;;;;;;5033052;28;20178;-39
2022/11/03 10:18:53;;;;;;;7.53;5.23;;;8.90;99.90;;;;;;5032746;28;20179;-37
2022/11/03 10:21:28;;;;;;;8.23;5.50;;;9.00;99.90;;;;;;5032908;28;20208;-37
2022/11/03 10:23:54;;;;;;;9.20;5.47;;;9.00;99.90;;;;;;5032713;28;20241;-37
2022/11/03 10:26:20;;;;;;;7.33;5.80;;;9.10;99.90;;;;;;5016250;28;20198;-40
2022/11/03 10:29:04;;;;;;;7.30;5.40;;;9.20;99.90;;;;;;5032122;28;20178;-37
2022/11/03 10:31:36;;;;;;;5.33;4.47;;;9.30;99.90;;;;;;5049083;28;20183;-39
2022/11/03 10:34:03;;;;;;;6.00;5.00;;;9.40;99.90;;;;;;5016045;28;20289;-40
2022/11/03 10:36:31;;;;;;;6.53;5.23;;;9.50;99.90;;;;;;5033144;28;20210;-39
2022/11/03 10:38:57;;;;;;;7.37;5.00;;;9.50;99.90;;;;;;5032298;28;20186;-39
2022/11/03 10:41:26;;;;;;;5.83;4.97;;;9.60;99.90;;;;;;5015826;28;20182;-36
2022/11/03 10:44:17;;;;;;;8.27;5.33;;;9.70;99.90;;;;;;5032080;28;20264;-38
2022/11/03 10:46:59;;;;;;;7.07;5.63;;;9.70;99.90;;;;;;5048631;28;20236;-39
2022/11/03 10:49:27;;;;;;;8.97;6.07;;;9.80;99.90;;;;;;5032120;28;20284;-38
2022/11/03 10:51:56;;;;;;;8.13;6.00;;;9.90;99.90;;;;;;5032234;28;20175;-38
2022/11/03 10:54:23;;;;;;;9.67;6.13;;;10.00;99.90;;;;;;5031919;28;20203;-38
2022/11/03 10:56:50;;;;;;;6.83;5.27;;;10.10;99.90;;;;;;5015166;28;20185;-39
2022/11/03 10:59:23;;;;;;;6.70;5.00;;;10.20;99.90;;;;;;5015537;28;20191;-38
2022/11/03 11:01:49;;;;;;;7.97;5.30;;;10.20;99.90;;;;;;5032008;28;20674;-37
2022/11/03 11:04:17;;;;;;;5.50;4.83;;;10.20;99.90;;;;;;5032046;28;20202;-41
2022/11/03 11:06:43;;;;;;;6.50;5.13;;;10.30;99.90;;;;;;5031648;28;20190;-38
2022/11/03 11:09:12;;;;;;;8.10;5.40;;;10.30;99.90;;;;;;5031722;28;20213;-38
2022/11/03 11:11:38;;;;;;;11.27;5.57;;;10.30;99.90;;;;;;5064923;28;20179;-40
2022/11/03 11:14:35;;;;;;;7.47;6.20;;;10.30;99.90;;;;;;5032927;28;20198;-41
2022/11/03 11:17:02;;;;;;;11.27;5.60;;;10.30;99.90;;;;;;5031355;28;20187;-42
2022/11/03 11:19:29;;;;;;;8.10;5.10;;;10.30;99.90;;;;;;5015382;28;20189;-39
2022/11/03 11:21:55;;;;;;;10.63;6.13;;;10.40;99.90;;;;;;5015211;28;20186;-39
2022/11/03 11:24:42;;;;;;;12.83;6.00;;;10.50;99.90;;;;;;5014832;28;20210;-41
2022/11/03 11:27:30;;;;;;;10.83;5.97;;;10.50;99.90;;;;;;5031461;28;20183;-38
2022/11/03 11:30:03;;;;;;;11.20;7.33;;;10.60;99.90;;;;;;5031277;28;20301;-41
2022/11/03 11:32:38;;;;;;;11.70;6.97;;;10.60;99.90;;;;;;5031425;28;20178;-42
2022/11/03 11:35:09;;;;;;;8.37;5.80;;;10.60;99.90;;;;;;5014591;28;20233;-41
2022/11/03 11:37:36;;;;;;;7.70;5.07;;;10.70;99.90;;;;;;5031054;28;20186;-41
2022/11/03 11:40:28;;;;;;;8.13;5.67;;;10.70;99.90;;;;;;5033043;28;20183;-41
2022/11/03 11:43:10;;;;;;;8.53;5.63;;;10.80;99.90;;;;;;5032037;28;20191;-39
2022/11/03 11:46:13;;;;;;;9.30;6.37;;;10.80;99.90;;;;;;5014705;28;20186;-39
2022/11/03 11:48:39;;;;;;;8.83;5.90;;;10.80;99.90;;;;;;5046246;28;20189;-41
2022/11/03 11:51:10;;;;;;;10.07;6.40;;;10.90;99.90;;;;;;5014513;28;20170;-37
2022/11/03 11:53:41;;;;;;;10.37;7.07;;;10.90;99.90;;;;;;5030864;28;20186;-41
2022/11/03 11:56:12;;;;;;;10.33;6.90;;;10.90;99.90;;;;;;5064308;28;20205;-41
2022/11/03 11:58:45;;;;;;;9.63;7.00;;;10.80;99.90;;;;;;5030392;28;20178;-40
2022/11/03 12:01:31;;;;;;;9.70;6.10;;;10.90;99.90;;;;;;5064175;28;20177;-41
2022/11/03 12:04:25;;;;;;;8.20;6.20;;;10.90;99.90;;;;;;5030859;28;20191;-38
2022/11/03 12:06:51;;;;;;;9.97;6.20;;;10.80;99.90;;;;;;5026629;28;20333;-41
2022/11/03 12:09:35;;;;;;;9.97;6.40;;;10.80;99.90;;;;;;5014054;28;20329;-39
2022/11/03 12:12:02;;;;;;;12.57;6.00;;;10.80;99.90;;;;;;5013978;28;20182;-40
2022/11/03 12:14:28;;;;;;;7.30;5.63;;;10.80;99.90;;;;;;5030630;28;20199;-41
2022/11/03 12:16:55;;;;;;;6.77;6.00;;;10.80;99.90;;;;;;5030278;28;20194;-41
2022/11/03 12:19:38;;;;;;;8.53;5.70;;;10.90;99.90;;;;;;5014188;28;20273;-40
2022/11/03 12:22:22;;;;;;;7.83;5.40;;;10.90;99.90;;;;;;5030402;28;20207;-39
2022/11/03 12:25:03;;;;;;;6.03;4.60;;;11.00;99.90;;;;;;5031643;28;20195;-41
2022/11/03 12:27:28;;;;;;;7.97;5.37;;;11.00;99.90;;;;;;5031879;28;20179;-41
2022/11/03 12:30:01;;;;;;;7.53;5.10;;;11.10;99.90;;;;;;5030179;28;20198;-41
2022/11/03 12:32:27;;;;;;;8.43;6.30;;;11.10;99.90;;;;;;5030193;28;20183;-41
2022/11/03 12:34:54;;;;;;;8.73;5.77;;;11.20;99.90;;;;;;5029962;28;20238;-40
2022/11/03 12:37:20;;;;;;;8.83;5.43;;;11.20;99.90;;;;;;5029936;28;20183;-39
2022/11/03 12:39:46;;;;;;;9.03;5.10;;;11.30;99.90;;;;;;5013969;28;20182;-40
2022/11/03 12:42:11;;;;;;;6.17;4.47;;;11.30;99.90;;;;;;5030166;28;20185;-39
2022/11/03 12:44:37;;;;;;;7.47;4.77;;;11.30;99.90;;;;;;5046662;28;20210;-41
2022/11/03 12:47:03;;;;;;;6.57;4.83;;;11.30;99.90;;;;;;5063092;28;20273;-40
2022/11/03 12:49:29;;;;;;;7.83;4.67;;;11.30;99.90;;;;;;5013623;28;20200;-39
2022/11/03 12:51:55;;;;;;;7.67;4.27;;;11.40;99.90;;;;;;5013592;28;20557;-39
2022/11/03 12:54:21;;;;;;;6.80;4.37;;;11.40;99.90;;;;;;5013517;28;20223;-39
2022/11/03 12:56:47;;;;;;;6.13;4.53;;;11.40;99.90;;;;;;5046219;28;20228;-40
2022/11/03 12:59:13;;;;;;;5.20;4.00;;;11.40;99.90;;;;;;5013440;28;20186;-39
2022/11/03 13:01:38;;;;;;;9.10;4.70;;;11.40;99.90;;;;;;5013060;28;20206;-39
2022/11/03 13:04:05;;;;;;;8.67;6.00;;;11.30;99.90;;;;;;5013246;28;20209;-41
2022/11/03 13:06:31;;;;;;;9.07;5.70;;;11.30;99.90;;;;;;5029728;28;20181;-39
2022/11/03 13:08:57;;;;;;;9.07;6.60;;;11.30;99.90;;;;;;5029669;28;20198;-39
2022/11/03 13:14:08;;;;;;;7.97;5.63;;;11.30;99.90;;;;;;5031025;28;20194;-41
2022/11/03 13:16:34;;;;;;;8.67;5.13;;;11.30;99.90;;;;;;5012973;28;20183;-39
2022/11/03 13:19:00;;;;;;;8.57;5.43;;;11.30;99.90;;;;;;5029573;28;20175;-41
2022/11/03 13:21:26;;;;;;;7.00;5.30;;;11.30;99.90;;;;;;5046829;28;20175;-42
2022/11/03 13:23:52;;;;;;;8.90;5.27;;;11.30;99.90;;;;;;5029577;28;20203;-42
2022/11/03 13:26:18;;;;;;;11.80;5.63;;;11.40;99.90;;;;;;5029395;28;20189;-40
2022/11/03 13:28:44;;;;;;;12.53;5.47;;;11.40;99.90;;;;;;5046135;28;20188;-39